sensor_id;sensor_type;location;lat;lon;timestamp;pressure;altitude;pressure_sealevel;temperature;humidity
33153;BME280;19509;43.862;26.176;2022-08-18T00:01:21;100198.56;;;20.44;71.72
33153;BME280;19509;43.862;26.176;2022-08-18T00:03:48;100195.00;;;20.49;71.49
33153;BME280;19509;43.862;26.176;2022-08-18T00:06:15;100198.25;;;20.56;71.18
33153;BME280;19509;43.862;26.176;2022-08-18T00:08:40;100203.31;;;20.73;70.73
33153;BME280;19509;43.862;26.176;2022-08-18T00:11:06;100203.97;;;20.60;70.73
33153;BME280;19509;43.862;26.176;2022-08-18T00:13:32;100203.72;;;20.56;70.93
33153;BME280;19509;43.862;26.176;2022-08-18T00:15:58;100207.56;;;20.55;71.59
33153;BME280;19509;43.862;26.176;2022-08-18T00:18:23;100212.44;;;20.58;71.62
33153;BME280;19509;43.862;26.176;2022-08-18T00:20:49;100210.47;;;20.64;70.77
33153;BME280;19509;43.862;26.176;2022-08-18T00:23:15;100211.94;;;20.51;71.49
33153;BME280;19509;43.862;26.176;2022-08-18T00:25:40;100217.22;;;20.37;71.55
33153;BME280;19509;43.862;26.176;2022-08-18T00:28:06;100208.06;;;20.18;72.28
33153;BME280;19509;43.862;26.176;2022-08-18T00:30:31;100219.06;;;20.07;72.76
33153;BME280;19509;43.862;26.176;2022-08-18T00:32:58;100218.16;;;20.17;72.57
33153;BME280;19509;43.862;26.176;2022-08-18T00:37:51;100207.53;;;20.16;72.68
33153;BME280;19509;43.862;26.176;2022-08-18T00:40:21;100209.72;;;20.14;73.15
33153;BME280;19509;43.862;26.176;2022-08-18T00:42:50;100225.88;;;20.10;72.78
33153;BME280;19509;43.862;26.176;2022-08-18T00:45:28;100222.13;;;20.01;73.01
33153;BME280;19509;43.862;26.176;2022-08-18T00:47:54;100217.72;;;20.05;72.81
33153;BME280;19509;43.862;26.176;2022-08-18T00:50:23;100221.75;;;20.18;72.69
33153;BME280;19509;43.862;26.176;2022-08-18T00:53:01;100229.13;;;20.12;72.86
33153;BME280;19509;43.862;26.176;2022-08-18T00:55:28;100229.13;;;20.12;73.05
33153;BME280;19509;43.862;26.176;2022-08-18T00:58:02;100230.75;;;20.13;73.06
33153;BME280;19509;43.862;26.176;2022-08-18T01:00:30;100222.81;;;20.22;72.12
33153;BME280;19509;43.862;26.176;2022-08-18T01:03:00;100224.16;;;20.19;72.34
33153;BME280;19509;43.862;26.176;2022-08-18T01:05:32;100216.22;;;20.23;72.24
33153;BME280;19509;43.862;26.176;2022-08-18T01:08:02;100226.97;;;20.09;72.55
33153;BME280;19509;43.862;26.176;2022-08-18T01:10:31;100227.84;;;19.99;72.84
33153;BME280;19509;43.862;26.176;2022-08-18T01:12:57;100222.41;;;19.94;72.73
33153;BME280;19509;43.862;26.176;2022-08-18T01:15:24;100225.72;;;19.86;73.33
33153;BME280;19509;43.862;26.176;2022-08-18T01:17:51;100215.09;;;19.84;73.10
33153;BME280;19509;43.862;26.176;2022-08-18T01:20:40;100218.59;;;19.95;72.73
33153;BME280;19509;43.862;26.176;2022-08-18T01:23:27;100229.78;;;19.94;72.51
33153;BME280;19509;43.862;26.176;2022-08-18T01:25:54;100221.00;;;19.97;71.98
33153;BME280;19509;43.862;26.176;2022-08-18T01:28:45;100222.31;;;20.09;71.90
33153;BME280;19509;43.862;26.176;2022-08-18T01:31:18;100216.53;;;20.16;71.49
33153;BME280;19509;43.862;26.176;2022-08-18T01:33:53;100215.22;;;20.08;71.69
33153;BME280;19509;43.862;26.176;2022-08-18T01:36:20;100207.56;;;20.11;71.57
33153;BME280;19509;43.862;26.176;2022-08-18T01:38:49;100222.31;;;20.15;71.55
33153;BME280;19509;43.862;26.176;2022-08-18T01:41:16;100218.28;;;19.97;71.99
33153;BME280;19509;43.862;26.176;2022-08-18T01:43:43;100223.63;;;19.68;73.05
33153;BME280;19509;43.862;26.176;2022-08-18T01:46:10;100225.97;;;19.90;72.44
33153;BME280;19509;43.862;26.176;2022-08-18T01:48:38;100226.72;;;20.00;72.05
33153;BME280;19509;43.862;26.176;2022-08-18T01:51:06;100218.78;;;20.04;71.86
33153;BME280;19509;43.862;26.176;2022-08-18T01:53:32;100217.72;;;20.05;71.72
33153;BME280;19509;43.862;26.176;2022-08-18T01:55:58;100221.75;;;20.13;71.93
33153;BME280;19509;43.862;26.176;2022-08-18T01:58:23;100238.31;;;19.87;72.31
33153;BME280;19509;43.862;26.176;2022-08-18T02:00:56;100235.91;;;19.65;73.26
33153;BME280;19509;43.862;26.176;2022-08-18T02:03:24;100226.94;;;19.49;73.66
33153;BME280;19509;43.862;26.176;2022-08-18T02:05:54;100239.75;;;19.64;73.57
33153;BME280;19509;43.862;26.176;2022-08-18T02:08:20;100239.72;;;19.69;73.42
33153;BME280;19509;43.862;26.176;2022-08-18T02:10:46;100250.03;;;19.82;73.20
33153;BME280;19509;43.862;26.176;2022-08-18T02:13:12;100243.47;;;19.83;73.05
33153;BME280;19509;43.862;26.176;2022-08-18T02:15:38;100258.22;;;19.88;72.83
33153;BME280;19509;43.862;26.176;2022-08-18T02:18:03;100259.25;;;19.97;71.95
33153;BME280;19509;43.862;26.176;2022-08-18T02:20:29;100265.03;;;19.90;72.08
33153;BME280;19509;43.862;26.176;2022-08-18T02:22:55;100254.94;;;19.85;72.34
33153;BME280;19509;43.862;26.176;2022-08-18T02:25:23;100260.16;;;19.82;72.17
33153;BME280;19509;43.862;26.176;2022-08-18T02:27:48;100272.94;;;19.92;72.28
33153;BME280;19509;43.862;26.176;2022-08-18T02:30:15;100265.31;;;19.89;72.63
33153;BME280;19509;43.862;26.176;2022-08-18T02:32:41;100260.19;;;19.77;72.51
33153;BME280;19509;43.862;26.176;2022-08-18T02:35:07;100271.38;;;19.80;72.75
33153;BME280;19509;43.862;26.176;2022-08-18T02:37:33;100282.03;;;19.77;72.99
33153;BME280;19509;43.862;26.176;2022-08-18T02:39:59;100282.63;;;19.53;72.99
33153;BME280;19509;43.862;26.176;2022-08-18T02:42:25;100270.88;;;19.43;74.17
33153;BME280;19509;43.862;26.176;2022-08-18T02:44:52;100259.41;;;19.46;74.32
33153;BME280;19509;43.862;26.176;2022-08-18T02:47:19;100269.50;;;19.55;73.74
33153;BME280;19509;43.862;26.176;2022-08-18T02:49:45;100252.59;;;19.48;73.92
33153;BME280;19509;43.862;26.176;2022-08-18T02:52:11;100267.84;;;19.59;73.88
33153;BME280;19509;43.862;26.176;2022-08-18T02:54:36;100277.69;;;19.66;73.59
33153;BME280;19509;43.862;26.176;2022-08-18T02:57:09;100286.44;;;19.57;73.39
33153;BME280;19509;43.862;26.176;2022-08-18T02:59:35;100280.13;;;19.62;73.32
33153;BME280;19509;43.862;26.176;2022-08-18T03:02:04;100300.31;;;19.56;73.41
33153;BME280;19509;43.862;26.176;2022-08-18T03:04:30;100294.66;;;19.22;74.53
33153;BME280;19509;43.862;26.176;2022-08-18T03:06:59;100305.34;;;19.13;74.70
33153;BME280;19509;43.862;26.176;2022-08-18T03:09:25;100303.97;;;19.10;74.78
33153;BME280;19509;43.862;26.176;2022-08-18T03:11:51;100299.63;;;18.99;75.23
33153;BME280;19509;43.862;26.176;2022-08-18T03:14:18;100311.06;;;19.06;75.32
33153;BME280;19509;43.862;26.176;2022-08-18T03:16:45;100316.50;;;18.96;75.61
33153;BME280;19509;43.862;26.176;2022-08-18T03:19:12;100316.25;;;18.93;75.89
33153;BME280;19509;43.862;26.176;2022-08-18T03:21:43;100314.34;;;19.03;75.95
33153;BME280;19509;43.862;26.176;2022-08-18T03:24:09;100315.69;;;19.01;75.58
33153;BME280;19509;43.862;26.176;2022-08-18T03:26:39;100312.41;;;19.14;75.18
33153;BME280;19509;43.862;26.176;2022-08-18T03:29:05;100310.22;;;19.11;75.33
33153;BME280;19509;43.862;26.176;2022-08-18T03:31:31;100314.34;;;18.93;75.96
33153;BME280;19509;43.862;26.176;2022-08-18T03:33:58;100315.13;;;18.88;76.46
33153;BME280;19509;43.862;26.176;2022-08-18T03:36:29;100318.69;;;18.94;76.13
33153;BME280;19509;43.862;26.176;2022-08-18T03:39:09;100317.34;;;19.07;75.78
33153;BME280;19509;43.862;26.176;2022-08-18T03:41:40;100320.31;;;19.10;75.56
33153;BME280;19509;43.862;26.176;2022-08-18T03:44:08;100319.25;;;19.06;75.89
33153;BME280;19509;43.862;26.176;2022-08-18T03:46:33;100321.41;;;19.25;75.14
33153;BME280;19509;43.862;26.176;2022-08-18T03:48:59;100328.47;;;19.36;74.96
33153;BME280;19509;43.862;26.176;2022-08-18T03:51:29;100324.09;;;19.50;74.56
33153;BME280;19509;43.862;26.176;2022-08-18T03:53:58;100334.72;;;19.52;74.81
33153;BME280;19509;43.862;26.176;2022-08-18T03:56:27;100333.09;;;19.71;74.21
33153;BME280;19509;43.862;26.176;2022-08-18T03:58:58;100343.44;;;19.79;73.91
33153;BME280;19509;43.862;26.176;2022-08-18T04:01:28;100340.66;;;19.90;72.97
33153;BME280;19509;43.862;26.176;2022-08-18T04:04:00;100337.09;;;20.04;72.76
33153;BME280;19509;43.862;26.176;2022-08-18T04:06:42;100337.75;;;20.30;71.69
33153;BME280;19509;43.862;26.176;2022-08-18T04:09:11;100336.66;;;20.37;71.02
33153;BME280;19509;43.862;26.176;2022-08-18T04:11:39;100348.91;;;20.44;70.86
33153;BME280;19509;43.862;26.176;2022-08-18T04:14:08;100356.03;;;20.45;70.99
33153;BME280;19509;43.862;26.176;2022-08-18T04:16:34;100358.81;;;20.35;71.07
33153;BME280;19509;43.862;26.176;2022-08-18T04:19:00;100352.53;;;20.35;71.25
33153;BME280;19509;43.862;26.176;2022-08-18T04:21:35;100347.31;;;20.38;71.17
33153;BME280;19509;43.862;26.176;2022-08-18T04:24:03;100347.84;;;20.40;71.01
33153;BME280;19509;43.862;26.176;2022-08-18T04:26:42;100359.56;;;20.46;71.12
33153;BME280;19509;43.862;26.176;2022-08-18T04:29:09;100361.75;;;20.49;70.95
33153;BME280;19509;43.862;26.176;2022-08-18T04:31:35;100351.59;;;20.54;70.97
33153;BME280;19509;43.862;26.176;2022-08-18T04:34:02;100349.66;;;20.65;70.31
33153;BME280;19509;43.862;26.176;2022-08-18T04:36:29;100353.66;;;20.78;70.42
33153;BME280;19509;43.862;26.176;2022-08-18T04:38:56;100348.91;;;20.89;70.03
33153;BME280;19509;43.862;26.176;2022-08-18T04:41:22;100350.50;;;21.00;69.71
33153;BME280;19509;43.862;26.176;2022-08-18T04:44:03;100342.28;;;21.00;69.23
33153;BME280;19509;43.862;26.176;2022-08-18T04:46:29;100352.75;;;21.22;68.72
33153;BME280;19509;43.862;26.176;2022-08-18T04:48:57;100356.47;;;21.41;68.11
33153;BME280;19509;43.862;26.176;2022-08-18T04:51:27;100360.16;;;21.56;68.03
33153;BME280;19509;43.862;26.176;2022-08-18T04:53:54;100353.06;;;21.79;67.03
33153;BME280;19509;43.862;26.176;2022-08-18T04:56:29;100349.69;;;21.87;66.46
33153;BME280;19509;43.862;26.176;2022-08-18T04:59:09;100357.75;;;22.02;65.97
33153;BME280;19509;43.862;26.176;2022-08-18T05:01:43;100356.47;;;22.18;65.58
33153;BME280;19509;43.862;26.176;2022-08-18T05:04:09;100346.88;;;22.40;65.15
33153;BME280;19509;43.862;26.176;2022-08-18T05:06:38;100357.09;;;22.53;64.64
33153;BME280;19509;43.862;26.176;2022-08-18T05:09:07;100352.94;;;22.75;63.66
33153;BME280;19509;43.862;26.176;2022-08-18T05:11:34;100340.56;;;22.77;63.65
33153;BME280;19509;43.862;26.176;2022-08-18T05:14:06;100352.16;;;22.93;63.68
33153;BME280;19509;43.862;26.176;2022-08-18T05:16:33;100344.88;;;23.02;63.73
33153;BME280;19509;43.862;26.176;2022-08-18T05:19:06;100352.34;;;23.16;63.48
33153;BME280;19509;43.862;26.176;2022-08-18T05:21:32;100358.56;;;23.21;63.60
33153;BME280;19509;43.862;26.176;2022-08-18T05:23:59;100365.03;;;23.44;62.93
33153;BME280;19509;43.862;26.176;2022-08-18T05:26:25;100362.53;;;23.61;61.87
33153;BME280;19509;43.862;26.176;2022-08-18T05:28:52;100356.47;;;23.78;60.24
33153;BME280;19509;43.862;26.176;2022-08-18T05:31:20;100355.16;;;24.03;59.17
33153;BME280;19509;43.862;26.176;2022-08-18T05:33:47;100362.97;;;24.10;58.96
33153;BME280;19509;43.862;26.176;2022-08-18T05:41:49;100366.94;;;24.18;59.40
33153;BME280;19509;43.862;26.176;2022-08-18T05:44:30;100369.06;;;24.35;59.08
33153;BME280;19509;43.862;26.176;2022-08-18T05:47:05;100365.72;;;24.51;58.23
33153;BME280;19509;43.862;26.176;2022-08-18T05:49:34;100358.41;;;24.69;57.73
33153;BME280;19509;43.862;26.176;2022-08-18T05:52:04;100359.06;;;24.66;57.99
33153;BME280;19509;43.862;26.176;2022-08-18T05:54:51;100360.00;;;24.84;57.39
33153;BME280;19509;43.862;26.176;2022-08-18T05:57:46;100361.75;;;25.02;56.41
33153;BME280;19509;43.862;26.176;2022-08-18T06:00:18;100359.75;;;25.31;56.50
33153;BME280;19509;43.862;26.176;2022-08-18T06:02:56;100364.03;;;25.45;55.77
33153;BME280;19509;43.862;26.176;2022-08-18T06:05:27;100348.75;;;25.39;55.50
33153;BME280;19509;43.862;26.176;2022-08-18T06:08:13;100350.56;;;25.44;55.81
33153;BME280;19509;43.862;26.176;2022-08-18T06:10:44;100359.22;;;25.51;55.67
33153;BME280;19509;43.862;26.176;2022-08-18T06:13:10;100361.38;;;25.63;55.44
33153;BME280;19509;43.862;26.176;2022-08-18T06:16:04;100362.88;;;25.78;54.55
33153;BME280;19509;43.862;26.176;2022-08-18T06:21:34;100354.59;;;25.69;53.47
33153;BME280;19509;43.862;26.176;2022-08-18T06:27:30;100363.59;;;26.40;53.00
33153;BME280;19509;43.862;26.176;2022-08-18T06:30:18;100362.31;;;26.47;51.71
33153;BME280;19509;43.862;26.176;2022-08-18T06:35:54;100370.31;;;26.74;51.25
33153;BME280;19509;43.862;26.176;2022-08-18T06:41:19;100360.59;;;26.94;50.79
33153;BME280;19509;43.862;26.176;2022-08-18T06:43:59;100369.97;;;27.10;50.24
33153;BME280;19509;43.862;26.176;2022-08-18T06:46:45;100370.16;;;27.23;49.26
33153;BME280;19509;43.862;26.176;2022-08-18T06:54:46;100375.31;;;27.50;49.36
33153;BME280;19509;43.862;26.176;2022-08-18T06:57:28;100375.59;;;27.66;49.07
33153;BME280;19509;43.862;26.176;2022-08-18T07:00:18;100380.28;;;27.83;48.72
33153;BME280;19509;43.862;26.176;2022-08-18T07:02:52;100382.84;;;27.88;49.04
33153;BME280;19509;43.862;26.176;2022-08-18T07:08:08;100373.41;;;28.19;47.44
33153;BME280;19509;43.862;26.176;2022-08-18T07:10:40;100373.00;;;28.08;47.03
33153;BME280;19509;43.862;26.176;2022-08-18T07:13:20;100367.28;;;27.66;48.39
33153;BME280;19509;43.862;26.176;2022-08-18T07:15:47;100366.78;;;27.73;47.19
33153;BME280;19509;43.862;26.176;2022-08-18T07:18:20;100369.16;;;27.45;48.20
33153;BME280;19509;43.862;26.176;2022-08-18T07:20:57;100368.25;;;27.79;48.60
33153;BME280;19509;43.862;26.176;2022-08-18T07:23:38;100365.84;;;28.07;48.23
33153;BME280;19509;43.862;26.176;2022-08-18T07:28:39;100369.28;;;28.34;46.48
33153;BME280;19509;43.862;26.176;2022-08-18T07:33:39;100364.72;;;28.59;46.11
33153;BME280;19509;43.862;26.176;2022-08-18T07:36:07;100369.00;;;28.77;46.37
33153;BME280;19509;43.862;26.176;2022-08-18T07:39:19;100369.28;;;28.84;45.36
33153;BME280;19509;43.862;26.176;2022-08-18T07:45:04;100367.06;;;29.32;44.82
33153;BME280;19509;43.862;26.176;2022-08-18T07:47:51;100372.69;;;29.23;43.72
33153;BME280;19509;43.862;26.176;2022-08-18T07:50:18;100373.34;;;29.20;44.79
33153;BME280;19509;43.862;26.176;2022-08-18T07:53:10;100367.75;;;29.74;43.45
33153;BME280;19509;43.862;26.176;2022-08-18T07:55:40;100362.19;;;29.99;42.67
33153;BME280;19509;43.862;26.176;2022-08-18T07:58:47;100366.34;;;29.92;42.97
33153;BME280;19509;43.862;26.176;2022-08-18T08:03:59;100350.53;;;30.42;42.29
33153;BME280;19509;43.862;26.176;2022-08-18T08:06:38;100358.63;;;30.23;41.31
33153;BME280;19509;43.862;26.176;2022-08-18T08:12:32;100361.41;;;30.87;40.54
33153;BME280;19509;43.862;26.176;2022-08-18T08:20:57;100363.91;;;31.33;38.85
33153;BME280;19509;43.862;26.176;2022-08-18T08:23:51;100363.84;;;31.17;39.90
33153;BME280;19509;43.862;26.176;2022-08-18T08:32:03;100363.00;;;30.36;41.88
33153;BME280;19509;43.862;26.176;2022-08-18T08:38:07;100355.47;;;30.49;40.81
33153;BME280;19509;43.862;26.176;2022-08-18T08:40:31;100354.88;;;30.68;41.53
33153;BME280;19509;43.862;26.176;2022-08-18T08:43:03;100359.06;;;31.18;40.82
33153;BME280;19509;43.862;26.176;2022-08-18T08:45:37;100356.94;;;31.39;39.23
33153;BME280;19509;43.862;26.176;2022-08-18T08:48:16;100351.97;;;31.32;40.32
33153;BME280;19509;43.862;26.176;2022-08-18T08:50:49;100341.66;;;31.05;41.29
33153;BME280;19509;43.862;26.176;2022-08-18T08:53:29;100358.88;;;30.82;40.59
33153;BME280;19509;43.862;26.176;2022-08-18T08:56:09;100354.41;;;30.66;41.55
33153;BME280;19509;43.862;26.176;2022-08-18T08:58:45;100357.66;;;30.68;41.31
33153;BME280;19509;43.862;26.176;2022-08-18T09:03:59;100360.81;;;30.29;41.63
33153;BME280;19509;43.862;26.176;2022-08-18T09:15:42;100357.19;;;30.66;40.50
33153;BME280;19509;43.862;26.176;2022-08-18T09:20:52;100352.88;;;30.80;40.28
33153;BME280;19509;43.862;26.176;2022-08-18T09:23:29;100350.91;;;30.81;40.36
33153;BME280;19509;43.862;26.176;2022-08-18T09:25:58;100342.47;;;30.77;40.72
33153;BME280;19509;43.862;26.176;2022-08-18T09:28:59;100346.41;;;30.76;40.53
33153;BME280;19509;43.862;26.176;2022-08-18T09:31:34;100346.97;;;30.82;40.19
33153;BME280;19509;43.862;26.176;2022-08-18T09:34:29;100350.75;;;30.90;40.09
33153;BME280;19509;43.862;26.176;2022-08-18T09:37:17;100353.50;;;31.02;40.54
33153;BME280;19509;43.862;26.176;2022-08-18T09:40:00;100346.19;;;31.25;40.03
33153;BME280;19509;43.862;26.176;2022-08-18T09:43:23;100339.81;;;31.53;38.89
33153;BME280;19509;43.862;26.176;2022-08-18T09:45:57;100333.91;;;31.26;39.36
33153;BME280;19509;43.862;26.176;2022-08-18T09:48:30;100335.66;;;31.47;39.08
33153;BME280;19509;43.862;26.176;2022-08-18T09:50:59;100332.44;;;31.61;39.85
33153;BME280;19509;43.862;26.176;2022-08-18T10:04:38;100316.19;;;31.94;36.70
33153;BME280;19509;43.862;26.176;2022-08-18T10:12:31;100320.97;;;31.46;36.89
33153;BME280;19509;43.862;26.176;2022-08-18T10:21:07;100316.06;;;32.58;35.11
33153;BME280;19509;43.862;26.176;2022-08-18T10:23:56;100305.63;;;32.74;34.65
33153;BME280;19509;43.862;26.176;2022-08-18T10:32:15;100311.00;;;33.94;32.03
33153;BME280;19509;43.862;26.176;2022-08-18T10:39:48;100314.28;;;34.26;31.70
33153;BME280;19509;43.862;26.176;2022-08-18T10:42:26;100305.03;;;33.46;32.54
33153;BME280;19509;43.862;26.176;2022-08-18T10:47:34;100302.84;;;32.19;34.42
33153;BME280;19509;43.862;26.176;2022-08-18T10:50:07;100302.03;;;32.19;35.14
33153;BME280;19509;43.862;26.176;2022-08-18T11:05:40;100292.16;;;31.54;36.05
33153;BME280;19509;43.862;26.176;2022-08-18T11:08:12;100292.06;;;31.67;36.08
33153;BME280;19509;43.862;26.176;2022-08-18T11:10:41;100293.41;;;31.73;35.71
33153;BME280;19509;43.862;26.176;2022-08-18T11:16:24;100287.63;;;31.81;37.44
33153;BME280;19509;43.862;26.176;2022-08-18T11:19:10;100290.59;;;32.04;36.26
33153;BME280;19509;43.862;26.176;2022-08-18T11:26:31;100279.75;;;31.68;36.43
33153;BME280;19509;43.862;26.176;2022-08-18T11:29:23;100278.97;;;31.67;36.37
33153;BME280;19509;43.862;26.176;2022-08-18T11:31:54;100269.16;;;31.89;37.50
33153;BME280;19509;43.862;26.176;2022-08-18T11:34:31;100264.41;;;32.25;35.27
33153;BME280;19509;43.862;26.176;2022-08-18T11:37:01;100278.00;;;32.65;34.92
33153;BME280;19509;43.862;26.176;2022-08-18T11:39:28;100266.53;;;32.70;34.21
33153;BME280;19509;43.862;26.176;2022-08-18T11:41:54;100262.72;;;32.98;33.87
33153;BME280;19509;43.862;26.176;2022-08-18T11:44:24;100262.09;;;33.08;34.81
33153;BME280;19509;43.862;26.176;2022-08-18T11:46:54;100251.34;;;33.30;33.77
33153;BME280;19509;43.862;26.176;2022-08-18T11:49:29;100254.81;;;33.46;34.37
33153;BME280;19509;43.862;26.176;2022-08-18T11:52:24;100243.84;;;33.57;33.21
33153;BME280;19509;43.862;26.176;2022-08-18T11:54:51;100230.41;;;33.66;32.81
33153;BME280;19509;43.862;26.176;2022-08-18T11:57:28;100230.88;;;33.68;32.91
33153;BME280;19509;43.862;26.176;2022-08-18T11:59:54;100224.47;;;33.67;32.92
33153;BME280;19509;43.862;26.176;2022-08-18T12:02:22;100219.53;;;34.10;32.55
33153;BME280;19509;43.862;26.176;2022-08-18T12:04:59;100219.63;;;34.18;32.82
33153;BME280;19509;43.862;26.176;2022-08-18T12:07:33;100209.22;;;34.48;32.14
33153;BME280;19509;43.862;26.176;2022-08-18T12:12:45;100192.53;;;33.91;32.14
33153;BME280;19509;43.862;26.176;2022-08-18T12:17:38;100192.38;;;34.07;32.85
33153;BME280;19509;43.862;26.176;2022-08-18T12:20:05;100196.22;;;34.63;32.03
33153;BME280;19509;43.862;26.176;2022-08-18T12:22:40;100205.72;;;34.92;31.19
33153;BME280;19509;43.862;26.176;2022-08-18T12:25:08;100192.66;;;34.32;31.65
33153;BME280;19509;43.862;26.176;2022-08-18T12:27:34;100182.25;;;34.63;31.04
33153;BME280;19509;43.862;26.176;2022-08-18T12:30:00;100187.44;;;34.65;31.37
33153;BME280;19509;43.862;26.176;2022-08-18T12:32:27;100192.94;;;34.54;31.48
33153;BME280;19509;43.862;26.176;2022-08-18T12:34:54;100194.00;;;34.12;32.27
33153;BME280;19509;43.862;26.176;2022-08-18T12:37:22;100194.09;;;34.19;31.89
33153;BME280;19509;43.862;26.176;2022-08-18T12:39:49;100182.28;;;33.73;32.24
33153;BME280;19509;43.862;26.176;2022-08-18T12:42:15;100183.56;;;34.05;31.12
33153;BME280;19509;43.862;26.176;2022-08-18T12:44:40;100179.56;;;34.06;31.87
33153;BME280;19509;43.862;26.176;2022-08-18T12:47:11;100173.81;;;34.56;31.58
33153;BME280;19509;43.862;26.176;2022-08-18T12:49:37;100165.53;;;35.11;31.04
33153;BME280;19509;43.862;26.176;2022-08-18T12:52:04;100159.09;;;35.03;29.71
33153;BME280;19509;43.862;26.176;2022-08-18T12:54:30;100156.88;;;35.23;29.92
33153;BME280;19509;43.862;26.176;2022-08-18T12:56:58;100146.72;;;35.60;29.85
33153;BME280;19509;43.862;26.176;2022-08-18T12:59:24;100149.44;;;35.49;29.43
33153;BME280;19509;43.862;26.176;2022-08-18T13:01:51;100143.00;;;34.93;30.07
33153;BME280;19509;43.862;26.176;2022-08-18T13:04:16;100144.78;;;35.16;30.72
33153;BME280;19509;43.862;26.176;2022-08-18T13:06:48;100144.53;;;35.35;30.89
33153;BME280;19509;43.862;26.176;2022-08-18T13:09:14;100145.00;;;35.41;29.39
33153;BME280;19509;43.862;26.176;2022-08-18T13:11:40;100141.53;;;35.58;28.83
33153;BME280;19509;43.862;26.176;2022-08-18T13:14:06;100143.16;;;35.70;29.62
33153;BME280;19509;43.862;26.176;2022-08-18T13:16:34;100136.97;;;35.39;29.12
33153;BME280;19509;43.862;26.176;2022-08-18T13:19:00;100135.34;;;35.31;29.31
33153;BME280;19509;43.862;26.176;2022-08-18T13:21:26;100153.09;;;34.60;30.02
33153;BME280;19509;43.862;26.176;2022-08-18T13:23:52;100147.28;;;34.80;30.60
33153;BME280;19509;43.862;26.176;2022-08-18T13:26:27;100159.78;;;34.93;29.20
33153;BME280;19509;43.862;26.176;2022-08-18T13:28:53;100143.56;;;35.06;29.83
33153;BME280;19509;43.862;26.176;2022-08-18T13:31:19;100140.53;;;34.84;29.32
33153;BME280;19509;43.862;26.176;2022-08-18T13:33:45;100143.97;;;35.12;30.09
33153;BME280;19509;43.862;26.176;2022-08-18T13:36:10;100141.72;;;34.83;30.59
33153;BME280;19509;43.862;26.176;2022-08-18T13:38:36;100139.97;;;33.97;31.87
33153;BME280;19509;43.862;26.176;2022-08-18T13:41:03;100139.81;;;33.86;32.29
33153;BME280;19509;43.862;26.176;2022-08-18T13:43:38;100145.00;;;33.58;32.89
33153;BME280;19509;43.862;26.176;2022-08-18T13:46:07;100150.22;;;33.33;33.26
33153;BME280;19509;43.862;26.176;2022-08-18T13:48:33;100154.75;;;33.18;33.32
33153;BME280;19509;43.862;26.176;2022-08-18T13:51:00;100173.22;;;33.03;33.60
33153;BME280;19509;43.862;26.176;2022-08-18T13:53:27;100183.94;;;32.59;34.37
33153;BME280;19509;43.862;26.176;2022-08-18T13:55:54;100213.38;;;32.40;34.65
33153;BME280;19509;43.862;26.176;2022-08-18T13:58:22;100215.63;;;31.96;34.42
33153;BME280;19509;43.862;26.176;2022-08-18T14:00:55;100225.19;;;31.00;37.37
33153;BME280;19509;43.862;26.176;2022-08-18T14:03:21;100197.97;;;30.61;39.26
33153;BME280;19509;43.862;26.176;2022-08-18T14:05:49;100196.34;;;30.60;37.85
33153;BME280;19509;43.862;26.176;2022-08-18T14:08:15;100182.06;;;30.74;39.55
33153;BME280;19509;43.862;26.176;2022-08-18T14:10:40;100184.50;;;30.76;37.18
33153;BME280;19509;43.862;26.176;2022-08-18T14:13:07;100166.75;;;30.80;39.12
33153;BME280;19509;43.862;26.176;2022-08-18T14:15:33;100172.06;;;30.85;36.21
33153;BME280;19509;43.862;26.176;2022-08-18T14:18:03;100152.38;;;30.62;39.00
33153;BME280;19509;43.862;26.176;2022-08-18T14:20:28;100149.25;;;30.64;38.00
33153;BME280;19509;43.862;26.176;2022-08-18T14:23:12;100142.00;;;30.75;39.15
33153;BME280;19509;43.862;26.176;2022-08-18T14:25:56;100121.09;;;30.66;40.05
33153;BME280;19509;43.862;26.176;2022-08-18T14:28:41;100138.25;;;30.83;38.99
33153;BME280;19509;43.862;26.176;2022-08-18T14:31:07;100136.72;;;30.86;39.83
33153;BME280;19509;43.862;26.176;2022-08-18T14:33:33;100133.97;;;30.86;39.24
33153;BME280;19509;43.862;26.176;2022-08-18T14:36:02;100126.72;;;30.81;39.88
33153;BME280;19509;43.862;26.176;2022-08-18T14:38:27;100133.47;;;30.68;40.12
33153;BME280;19509;43.862;26.176;2022-08-18T14:40:53;100131.47;;;30.53;40.42
33153;BME280;19509;43.862;26.176;2022-08-18T14:43:19;100125.59;;;30.54;40.67
33153;BME280;19509;43.862;26.176;2022-08-18T14:45:47;100126.91;;;30.60;41.28
33153;BME280;19509;43.862;26.176;2022-08-18T14:48:15;100121.06;;;30.50;41.44
33153;BME280;19509;43.862;26.176;2022-08-18T14:50:44;100117.06;;;30.63;41.44
33153;BME280;19509;43.862;26.176;2022-08-18T14:53:11;100122.78;;;30.70;41.51
33153;BME280;19509;43.862;26.176;2022-08-18T14:55:38;100120.66;;;30.48;42.87
33153;BME280;19509;43.862;26.176;2022-08-18T14:58:03;100115.38;;;30.74;43.42
33153;BME280;19509;43.862;26.176;2022-08-18T15:00:29;100119.69;;;31.03;41.42
33153;BME280;19509;43.862;26.176;2022-08-18T15:02:56;100119.56;;;31.31;40.30
33153;BME280;19509;43.862;26.176;2022-08-18T15:05:22;100112.59;;;31.22;40.58
33153;BME280;19509;43.862;26.176;2022-08-18T15:07:48;100120.44;;;31.51;41.14
33153;BME280;19509;43.862;26.176;2022-08-18T15:10:14;100117.50;;;31.79;40.04
33153;BME280;19509;43.862;26.176;2022-08-18T15:12:41;100108.31;;;31.79;40.22
33153;BME280;19509;43.862;26.176;2022-08-18T15:15:14;100108.63;;;31.74;39.93